Friday, December 14, 2018, 12:34 PM EST
Back to Local

KHPN, White Plains Westchester

Location: Greenwich, NY, United States Lat: 41.067
Local Time: 12:34 PM EST (17:34 GMT) Lon: -73.7
Time Zone: US/Eastern Elev: 439 ft

Show me the last for .
Show Decoded

2018-12-14 11:56 METAR KHPN 141656Z 11005KT 10SM BKN018 BKN028 07/03 A3039 RMK AO2 SLP298
                 T00670033 =
2018-12-14 10:56 METAR KHPN 141556Z COR 08004KT 10SM BKN028 BKN055 06/02 A3045 RMK AO2 SLP318
                 T00560022 =
2018-12-14 09:56 METAR KHPN 141456Z 08004KT 10SM SCT025 BKN055 04/02 A3048 RMK AO2 SLP330
                 T00390017 51009 =
2018-12-14 08:56 METAR KHPN 141356Z 08005KT 10SM BKN023 03/01 A3048 RMK AO2 SLP329 T00330011 =
2018-12-14 07:56 METAR KHPN 141256Z 09003KT 10SM BKN029 03/01 A3047 RMK AO2 SLP326 T00280011 =
2018-12-14 06:56 METAR KHPN 141156Z 09004KT 10SM BKN029 03/01 A3046 RMK AO2 SLP321 T00280011
                 10028 20017 55002 =
2018-12-14 05:56 METAR KHPN 141056Z 08007KT 10SM FEW023 BKN029 03/01 A3044 RMK AO2 SLP317
                 T00280006 =
2018-12-14 04:56 METAR KHPN 140956Z 09005KT 10SM FEW023 BKN029 03/01 A3045 RMK AO2 SLP320
                 T00280006 =
2018-12-14 03:56 METAR KHPN 140856Z 11004KT 10SM BKN031 02/01 A3046 RMK AO2 SLP324 T00220006
                 56001 =
2018-12-14 02:56 METAR KHPN 140756Z 08005KT 10SM BKN032 02/01 A3046 RMK AO2 SLP324 T00220006 =
2018-12-14 01:56 METAR KHPN 140656Z 08006KT 10SM SCT016 OVC036 02/00 A3046 RMK AO2 SLP324
                 T00220000 =
2018-12-14 00:56 METAR KHPN 140556Z 07006KT 10SM BKN013 OVC023 02/00 A3046 RMK AO2 SLP324 60000
                 T00170000 10022 20011 58002 =
2018-12-13 23:56 METAR KHPN 140456Z 07008KT 10SM BKN013 02/00 A3047 RMK AO2 SLP327 T00170000
                 400221033 =
2018-12-13 22:56 METAR KHPN 140356Z 07008KT 10SM BKN010 02/00 A3048 RMK AO2 SLP329 T00170000 =
2018-12-13 21:56 METAR KHPN 140256Z 07006KT 10SM BKN010 02/01 A3047 RMK AO2 SLP327 60000
                 T00170006 51005 =
2018-12-13 20:56 METAR KHPN 140156Z 07006KT 9SM BKN007 02/00 A3046 RMK AO2 RAB05E06UPB06E16
                 SLP325 P0000 T00170000 =
2018-12-13 19:56 METAR KHPN 140056Z 07007KT 8SM BKN006 01/00 A3047 RMK AO2 UPB26E37 SLP326 P0000
                 T00110000 =
2018-12-13 18:56 METAR KHPN 132356Z 07007KT 8SM BKN006 OVC012 01/M01 A3045 RMK AO2 SLP322 60000
                 T00111006 10011 20000 53008 =
2018-12-13 17:56 METAR KHPN 132256Z 08010G15KT 6SM BR BKN006 OVC012 01/M01 A3044 RMK AO2 CIG
                 006V010 SLP317 T00061006 =
2018-12-13 16:56 METAR KHPN 132156Z 07007KT 2 1/2SM BR BKN006 01/M01 A3044 RMK AO2 DZB19E53SNE19
                 SLP318 P0000 T00061006 =
2018-12-13 15:56 METAR KHPN 132056Z 06008KT 2 1/2SM -SN BR BKN008 OVC013 01/M01 A3043 RMK AO2
                 SNB06 CIG 006V011 SLP314 P0000 60000 T00061011 53013 =
2018-12-13 15:02 METAR KHPN 132002Z 07008KT 2SM BR BKN008 OVC014 00/M02 A3042 RMK AO2 T00001017 =
2018-12-13 14:58 METAR KHPN 131958Z 06007KT 4SM BR OVC012 00/M02 A3042 RMK AO2 T00001017 =
2018-12-13 14:56 METAR KHPN 131956Z 05008KT 2SM BR BKN008 OVC014 00/M02 A3042 RMK AO2 SNB28E43
                 SLP310 P0000 T00001017 =
2018-12-13 13:56 METAR KHPN 131856Z 07006KT 2 1/2SM BR BKN012 OVC025 00/M02 A3040 RMK AO2 SNE54
                 SLP304 P0000 T00001022 =
2018-12-13 12:56 METAR KHPN 131756Z 08007KT 1 1/2SM -SN BR BKN012 OVC019 00/M03 A3039 RMK AO2
                 SLP301 P0000 60000 T00001028 10000 21033 58007 =

Support USWX by starting your Amazon purchase here.